aviador You're here:

KARA Decoded Metar

LOUISIANA in LA, USA
Report Time2017-05-25 00:53:00
UTC Time2017-05-25 01:13:26
Flight Rules vfr VFR
Wind300° at 05 kt
W.Decomp.*RWY 34: 3.7 kt HW 3.4 kt LCW
W.Rank300° ranks 32
Current wind is below 300° avg. (6.6)
Visibility9999 m
Phenomena:N/A
Clouds:Few 065 Hf
Expected CloudBase > 4,800 ft AGL from Temp-Dew spread
CeilingNone
Temp22°C (ISA +7)
Dew Point10°C (47% RH)
AAT20.3°C
QNH1007 hPa
Density Alt1,257 ft
Elevation59 ft
Report Wrong Elevation
Raw Report
KARA 250053Z 30005KT 10SM FEW065 22/10 A2973 RMK AO2 SLP067
T02170100=

Extra information for KARA:More info

Metar Taf Metar & Taf Last 4 Metars F.Rules Stats Wind Profile Meteogram Temp Stats Airport Information Weather charts Add Link Nearby VenuesMetar ALERT Operation Metar Decoded Social comments

AIRNAV info for KARA